Time;durP1;ratioP1;P1;durP2;ratioP2;P2;SDS_P1;SDS_P2;PMS_P1;PMS_P2;Temp;Humidity;BMP_temperature;BMP_pressure;BME280_temperature;BME280_humidity;BME280_pressure;Samples;Min_cycle;Max_cycle;Signal;HPM_P1;HPM_P2
2024/01/11 00:02:14;;;;;;;73.23;35.73;;;-6.80;80.10;;;;;;5041883;28;20048;-71
2024/01/11 00:04:40;;;;;;;76.20;34.37;;;-6.70;80.10;;;;;;5040912;28;20556;-73
2024/01/11 00:07:06;;;;;;;75.53;35.23;;;-6.70;80.10;;;;;;5040492;28;21020;-72
2024/01/11 00:09:31;;;;;;;82.43;36.83;;;-6.70;80.10;;;;;;5044539;28;20601;-70
2024/01/11 00:11:57;;;;;;;76.30;35.10;;;-6.70;80.10;;;;;;5022538;28;20072;-70
2024/01/11 00:14:23;;;;;;;76.23;36.47;;;-6.70;80.10;;;;;;5047933;28;20259;-71
2024/01/11 00:16:48;;;;;;;80.07;36.90;;;-6.60;80.10;;;;;;5021099;28;20053;-71
2024/01/11 00:19:14;;;;;;;77.60;35.83;;;-6.60;80.20;;;;;;5038225;28;20044;-71
2024/01/11 00:21:40;;;;;;;80.83;37.53;;;-6.60;80.30;;;;;;5040181;28;20095;-70
2024/01/11 00:24:05;;;;;;;83.33;37.53;;;-6.50;80.20;;;;;;5034838;28;20041;-70
2024/01/11 00:26:31;;;;;;;77.80;36.60;;;-6.60;80.20;;;;;;5037124;28;20173;-70
2024/01/11 00:28:57;;;;;;;88.53;38.37;;;-6.50;80.20;;;;;;5036824;28;20049;-71
2024/01/11 00:31:22;;;;;;;77.77;35.70;;;-6.50;80.30;;;;;;5035050;28;20049;-70
2024/01/11 00:33:48;;;;;;;77.27;37.77;;;-6.50;80.20;;;;;;5032639;28;20135;-71
2024/01/11 00:36:20;;;;;;;81.53;36.90;;;-6.50;80.20;;;;;;5010926;28;20156;-70
2024/01/11 00:38:46;;;;;;;86.53;37.93;;;-6.50;80.20;;;;;;5030991;28;20120;-72
2024/01/11 00:41:12;;;;;;;82.30;37.43;;;-6.50;80.20;;;;;;5028918;28;20278;-70
2024/01/11 00:43:37;;;;;;;86.80;37.70;;;-6.50;80.20;;;;;;5015675;28;20103;-70
2024/01/11 00:46:03;;;;;;;76.80;37.07;;;-6.50;80.20;;;;;;5030351;28;20059;-70
2024/01/11 00:48:29;;;;;;;79.67;37.87;;;-6.50;80.30;;;;;;5034298;28;20045;-72
2024/01/11 00:50:54;;;;;;;76.73;35.67;;;-6.50;80.30;;;;;;5027949;28;20119;-71
2024/01/11 00:53:20;;;;;;;84.73;37.90;;;-6.50;80.20;;;;;;5033315;28;20060;-70
2024/01/11 00:55:46;;;;;;;86.20;38.10;;;-6.50;80.30;;;;;;5031207;28;20595;-71
2024/01/11 00:58:11;;;;;;;83.97;38.83;;;-6.40;80.30;;;;;;5035090;28;20040;-70
2024/01/11 01:00:37;;;;;;;79.37;37.90;;;-6.50;80.20;;;;;;5013206;28;20138;-72
2024/01/11 01:03:03;;;;;;;85.33;36.90;;;-6.50;80.30;;;;;;5039701;28;20061;-72
2024/01/11 01:05:29;;;;;;;84.43;37.20;;;-6.50;80.20;;;;;;5023324;28;20131;-72
2024/01/11 01:07:54;;;;;;;86.13;38.73;;;-6.50;80.30;;;;;;5033105;28;20817;-70
2024/01/11 01:10:20;;;;;;;77.77;36.77;;;-6.50;80.40;;;;;;5032809;28;20041;-71
2024/01/11 01:12:46;;;;;;;88.30;39.53;;;-6.40;80.40;;;;;;5034059;28;20049;-71
2024/01/11 01:15:12;;;;;;;82.60;38.77;;;-6.40;80.40;;;;;;5016481;28;20045;-71
2024/01/11 01:17:37;;;;;;;84.13;38.70;;;-6.50;80.30;;;;;;5005867;28;20055;-71
2024/01/11 01:20:03;;;;;;;81.33;39.37;;;-6.50;80.30;;;;;;5017483;28;20045;-70
2024/01/11 01:22:29;;;;;;;86.63;38.67;;;-6.50;80.30;;;;;;5003509;28;20060;-71
2024/01/11 01:24:55;;;;;;;86.33;38.70;;;-6.60;80.30;;;;;;5035336;28;20283;-73
2024/01/11 01:27:21;;;;;;;83.07;37.93;;;-6.60;80.30;;;;;;5035399;28;20044;-70
2024/01/11 01:29:46;;;;;;;80.87;37.13;;;-6.60;80.30;;;;;;5019350;28;20048;-72
2024/01/11 01:32:12;;;;;;;74.43;36.03;;;-6.60;80.30;;;;;;5018743;28;20362;-70
2024/01/11 01:34:37;;;;;;;83.67;37.63;;;-6.70;80.30;;;;;;5035914;28;20057;-70
2024/01/11 01:37:03;;;;;;;80.27;37.27;;;-6.70;80.30;;;;;;5037327;28;20076;-71
2024/01/11 01:39:29;;;;;;;88.03;36.33;;;-6.70;80.30;;;;;;5036744;28;20069;-70
2024/01/11 01:41:54;;;;;;;87.60;39.10;;;-6.80;80.20;;;;;;5023588;28;20055;-70
2024/01/11 01:44:20;;;;;;;78.80;37.70;;;-6.80;80.30;;;;;;5039365;28;20086;-73
2024/01/11 01:46:47;;;;;;;85.70;35.87;;;-6.80;80.30;;;;;;5020417;28;20071;-70
2024/01/11 01:49:13;;;;;;;82.47;37.50;;;-6.80;80.30;;;;;;5028241;28;20109;-70
2024/01/11 01:51:39;;;;;;;83.67;37.47;;;-6.80;80.30;;;;;;5038442;28;20283;-72
2024/01/11 01:54:05;;;;;;;81.47;37.07;;;-6.80;80.40;;;;;;5036092;28;20258;-70
2024/01/11 01:56:31;;;;;;;74.50;36.27;;;-6.80;80.40;;;;;;5021707;28;20049;-71
2024/01/11 01:58:58;;;;;;;86.90;38.67;;;-6.80;80.40;;;;;;5019486;28;20049;-70
2024/01/11 02:01:27;;;;;;;77.17;35.13;;;-6.80;80.30;;;;;;5020649;28;20318;-73
2024/01/11 02:03:55;;;;;;;79.67;36.63;;;-6.80;80.30;;;;;;5027613;28;20311;-70
2024/01/11 02:06:24;;;;;;;76.47;35.93;;;-6.90;80.40;;;;;;5038695;28;20334;-71
2024/01/11 02:08:53;;;;;;;74.40;34.63;;;-6.80;80.30;;;;;;5038082;28;20562;-70
2024/01/11 02:11:21;;;;;;;77.30;36.03;;;-6.90;80.30;;;;;;5038025;28;20281;-71
2024/01/11 02:13:47;;;;;;;75.20;35.33;;;-7.00;80.20;;;;;;5015630;28;20379;-71
2024/01/11 02:16:13;;;;;;;74.97;36.10;;;-7.00;80.30;;;;;;5017916;28;20412;-71
2024/01/11 02:18:39;;;;;;;74.80;35.60;;;-7.00;80.30;;;;;;5032877;28;20310;-70
2024/01/11 02:21:09;;;;;;;75.27;34.27;;;-7.00;80.20;;;;;;5011548;28;20272;-70
2024/01/11 02:23:37;;;;;;;78.93;36.60;;;-7.10;80.20;;;;;;5025104;28;20294;-70
2024/01/11 02:26:03;;;;;;;73.83;33.00;;;-7.10;80.20;;;;;;5030348;28;20284;-70
2024/01/11 02:28:28;;;;;;;78.37;35.13;;;-7.10;80.20;;;;;;5035187;28;20276;-70
2024/01/11 02:30:54;;;;;;;81.77;35.90;;;-7.10;80.30;;;;;;5010492;28;20045;-70
2024/01/11 02:33:20;;;;;;;78.40;35.70;;;-7.10;80.40;;;;;;5017066;28;20060;-70
2024/01/11 02:35:45;;;;;;;86.40;37.50;;;-7.00;80.40;;;;;;5031578;28;20060;-71
2024/01/11 02:38:11;;;;;;;84.07;37.10;;;-7.00;80.50;;;;;;5016435;28;20072;-72
2024/01/11 02:40:38;;;;;;;80.53;36.53;;;-6.90;80.60;;;;;;5033458;28;20088;-70
2024/01/11 02:43:10;;;;;;;82.47;34.93;;;-6.90;80.60;;;;;;5033106;28;20053;-70
2024/01/11 02:45:36;;;;;;;77.23;35.33;;;-7.00;80.50;;;;;;5014903;28;20292;-70
2024/01/11 02:48:02;;;;;;;80.50;35.10;;;-7.00;80.50;;;;;;5026867;28;20278;-70
2024/01/11 02:50:28;;;;;;;76.93;35.33;;;-7.00;80.50;;;;;;5035494;28;20288;-70
2024/01/11 02:52:53;;;;;;;76.27;35.93;;;-7.10;80.50;;;;;;5038643;28;20049;-70
2024/01/11 02:55:19;;;;;;;68.60;33.40;;;-7.10;80.50;;;;;;5018167;28;20057;-71
2024/01/11 02:57:45;;;;;;;71.20;30.83;;;-7.10;80.50;;;;;;5037373;28;20052;-70
2024/01/11 03:00:11;;;;;;;77.93;35.07;;;-7.10;80.40;;;;;;5035155;28;20484;-72
2024/01/11 03:02:38;;;;;;;74.97;34.93;;;-7.10;80.50;;;;;;5017465;28;20056;-71
2024/01/11 03:05:04;;;;;;;77.80;35.10;;;-7.10;80.50;;;;;;5034892;28;20292;-71
2024/01/11 03:07:30;;;;;;;81.27;36.47;;;-7.10;80.50;;;;;;5035260;28;20299;-72
2024/01/11 03:09:56;;;;;;;77.33;35.10;;;-7.10;80.50;;;;;;5033688;28;20540;-72
2024/01/11 03:12:22;;;;;;;85.30;36.03;;;-7.10;80.50;;;;;;5038693;28;20051;-71
2024/01/11 03:14:48;;;;;;;78.43;35.57;;;-7.10;80.50;;;;;;5035497;28;20695;-72
2024/01/11 03:17:14;;;;;;;79.87;35.97;;;-7.20;80.50;;;;;;5038027;28;20057;-71
2024/01/11 03:19:40;;;;;;;74.20;34.13;;;-7.20;80.50;;;;;;5034797;28;20287;-71
2024/01/11 03:22:06;;;;;;;74.50;33.73;;;-7.30;80.50;;;;;;5037627;28;20140;-71
2024/01/11 03:24:33;;;;;;;71.83;34.23;;;-7.30;80.50;;;;;;5036624;28;20320;-71
2024/01/11 03:26:58;;;;;;;71.20;34.73;;;-7.30;80.50;;;;;;5036245;28;20279;-70
2024/01/11 03:29:24;;;;;;;70.87;32.83;;;-7.20;80.50;;;;;;5041565;28;20649;-71
2024/01/11 03:31:50;;;;;;;83.50;35.40;;;-7.20;80.60;;;;;;5033175;28;20087;-73
2024/01/11 03:34:16;;;;;;;75.20;33.03;;;-7.10;80.60;;;;;;5021855;28;20052;-71
2024/01/11 03:36:42;;;;;;;85.63;37.07;;;-7.10;80.70;;;;;;5037042;28;20071;-70
2024/01/11 03:39:08;;;;;;;82.93;37.23;;;-7.00;80.80;;;;;;5021041;28;20829;-70
2024/01/11 03:41:33;;;;;;;76.97;35.07;;;-7.00;80.90;;;;;;5038809;28;20063;-69
2024/01/11 03:43:59;;;;;;;79.50;35.93;;;-7.00;80.80;;;;;;5041410;28;20057;-71
2024/01/11 03:46:25;;;;;;;80.40;37.50;;;-6.90;80.80;;;;;;5039360;28;20393;-72
2024/01/11 03:48:50;;;;;;;86.37;37.07;;;-6.90;80.80;;;;;;5021491;28;20095;-73
2024/01/11 03:51:16;;;;;;;82.87;36.67;;;-6.90;80.80;;;;;;5041853;28;20068;-71
2024/01/11 03:53:42;;;;;;;79.97;35.33;;;-6.90;80.80;;;;;;5041846;28;20045;-70
2024/01/11 03:56:08;;;;;;;84.17;36.20;;;-6.90;80.90;;;;;;4984863;28;1121314;-70
2024/01/11 03:58:36;;;;;;;77.27;35.47;;;-6.90;80.80;;;;;;5025174;28;20135;-72
2024/01/11 04:01:02;;;;;;;79.97;36.63;;;-6.90;80.80;;;;;;5041656;28;20102;-70
2024/01/11 04:03:27;;;;;;;76.33;36.73;;;-6.90;80.90;;;;;;5038063;28;20279;-71
2024/01/11 04:05:53;;;;;;;85.37;38.77;;;-6.80;80.90;;;;;;5031161;28;20045;-70
2024/01/11 04:08:19;;;;;;;80.33;37.40;;;-6.80;81.00;;;;;;5039576;28;20160;-70
2024/01/11 04:10:44;;;;;;;87.30;38.80;;;-6.70;81.00;;;;;;5015826;28;20052;-70
2024/01/11 04:13:10;;;;;;;87.97;37.97;;;-6.70;81.10;;;;;;5033218;28;20057;-70
2024/01/11 04:15:36;;;;;;;84.10;36.90;;;-6.60;81.00;;;;;;5027581;28;20750;-70
2024/01/11 04:18:02;;;;;;;88.80;38.20;;;-6.60;81.10;;;;;;5030821;28;20364;-70
2024/01/11 04:20:28;;;;;;;88.50;39.13;;;-6.50;81.10;;;;;;5028202;28;20281;-70
2024/01/11 04:22:53;;;;;;;89.97;39.97;;;-6.50;81.20;;;;;;5032156;28;20132;-70
2024/01/11 04:25:20;;;;;;;93.43;40.17;;;-6.40;81.20;;;;;;5033228;28;20041;-70
2024/01/11 04:27:46;;;;;;;88.43;40.13;;;-6.40;81.20;;;;;;5034415;28;20049;-70
2024/01/11 04:30:11;;;;;;;93.93;41.70;;;-6.30;81.30;;;;;;5013204;28;20433;-70
2024/01/11 04:32:37;;;;;;;92.43;41.53;;;-6.20;81.40;;;;;;5036954;28;20258;-71
2024/01/11 04:35:03;;;;;;;91.43;40.40;;;-6.10;81.40;;;;;;5030956;28;20493;-71
2024/01/11 04:37:29;;;;;;;94.07;40.77;;;-6.10;81.40;;;;;;5032386;28;20049;-72
2024/01/11 04:39:55;;;;;;;98.43;43.47;;;-6.00;81.40;;;;;;5029776;28;20791;-70
2024/01/11 04:42:20;;;;;;;101.43;44.33;;;-6.00;81.50;;;;;;5031444;28;20049;-70
2024/01/11 04:44:46;;;;;;;97.47;43.77;;;-5.90;81.50;;;;;;5032703;28;20547;-72
2024/01/11 04:47:12;;;;;;;107.40;45.67;;;-5.80;81.60;;;;;;5033648;28;20053;-71
2024/01/11 04:49:39;;;;;;;103.63;45.40;;;-5.70;81.60;;;;;;5035045;28;20087;-72
2024/01/11 04:52:05;;;;;;;108.77;47.00;;;-5.60;81.70;;;;;;5024122;28;20084;-71
2024/01/11 04:54:31;;;;;;;109.47;45.50;;;-5.60;81.70;;;;;;5029674;28;20291;-71
2024/01/11 04:56:57;;;;;;;105.20;46.40;;;-5.60;81.70;;;;;;5020775;28;20304;-73
2024/01/11 04:59:23;;;;;;;117.83;48.23;;;-5.40;81.80;;;;;;5013024;28;20049;-72
2024/01/11 05:01:49;;;;;;;106.77;47.53;;;-5.40;81.80;;;;;;5021609;28;20124;-71
2024/01/11 05:04:14;;;;;;;112.40;47.97;;;-5.30;81.90;;;;;;5023171;28;20224;-73
2024/01/11 05:06:40;;;;;;;112.90;47.50;;;-5.20;81.80;;;;;;5010350;28;20131;-71
2024/01/11 05:09:05;;;;;;;117.73;50.60;;;-5.20;81.90;;;;;;5027745;28;20046;-71
2024/01/11 05:11:31;;;;;;;121.47;50.70;;;-5.20;82.00;;;;;;5020708;28;20053;-71
2024/01/11 05:13:57;;;;;;;116.93;51.70;;;-5.10;81.90;;;;;;5029650;28;20053;-71
2024/01/11 05:16:24;;;;;;;115.93;51.00;;;-5.00;82.00;;;;;;5024469;28;20059;-72
2024/01/11 05:18:52;;;;;;;117.63;49.50;;;-5.00;82.00;;;;;;5011689;28;20053;-72
2024/01/11 05:21:18;;;;;;;111.87;49.90;;;-4.90;82.00;;;;;;4999258;28;20337;-71
2024/01/11 05:23:44;;;;;;;114.30;50.40;;;-4.90;81.90;;;;;;5031088;28;20416;-71
2024/01/11 05:26:10;;;;;;;113.37;49.60;;;-4.80;82.10;;;;;;5008265;28;20295;-71
2024/01/11 05:28:38;;;;;;;116.83;49.90;;;-4.70;82.10;;;;;;5019691;28;20041;-72
2024/01/11 05:31:07;;;;;;;117.63;50.90;;;-4.60;82.10;;;;;;5021300;28;20809;-71
2024/01/11 05:33:33;;;;;;;108.80;48.23;;;-4.60;82.10;;;;;;5040182;28;20354;-71
2024/01/11 05:35:59;;;;;;;107.50;48.13;;;-4.60;82.10;;;;;;5014737;28;20495;-72
2024/01/11 05:38:25;;;;;;;157.90;66.53;;;-4.60;82.10;;;;;;5021661;28;20300;-71
2024/01/11 05:40:50;;;;;;;121.37;53.50;;;-4.50;82.10;;;;;;5013023;28;20049;-72
2024/01/11 05:43:16;;;;;;;113.87;50.13;;;-4.40;82.10;;;;;;5022244;28;20041;-72
2024/01/11 05:45:42;;;;;;;109.27;50.03;;;-4.40;82.20;;;;;;5021393;28;20053;-73
2024/01/11 05:48:07;;;;;;;110.90;48.83;;;-4.30;82.20;;;;;;5020610;28;20058;-71
2024/01/11 05:50:33;;;;;;;107.93;48.57;;;-4.30;82.20;;;;;;5021103;28;20049;-71
2024/01/11 05:52:58;;;;;;;104.97;49.30;;;-4.20;82.20;;;;;;5039848;28;20499;-71
2024/01/11 05:55:24;;;;;;;105.07;49.17;;;-4.10;82.20;;;;;;5035067;28;20626;-73
2024/01/11 05:57:50;;;;;;;116.70;49.87;;;-4.10;82.30;;;;;;5040448;28;20041;-73
2024/01/11 06:00:16;;;;;;;113.80;50.77;;;-4.10;82.30;;;;;;5016716;28;20384;-71
2024/01/11 06:02:42;;;;;;;106.73;49.17;;;-4.00;82.20;;;;;;5013047;28;20085;-72
2024/01/11 06:05:12;;;;;;;113.90;49.73;;;-4.00;82.30;;;;;;5025062;28;20094;-71
2024/01/11 06:07:38;;;;;;;112.67;50.23;;;-4.00;82.30;;;;;;5029189;28;20288;-72
2024/01/11 06:10:05;;;;;;;112.23;50.73;;;-4.00;82.30;;;;;;5025688;28;20068;-74
2024/01/11 06:12:31;;;;;;;104.33;49.90;;;-3.90;82.30;;;;;;5011244;28;20058;-72
2024/01/11 06:14:57;;;;;;;115.83;51.70;;;-3.90;82.20;;;;;;5026427;28;20053;-71
2024/01/11 06:17:23;;;;;;;106.20;51.17;;;-3.80;82.30;;;;;;5036674;28;20080;-71
2024/01/11 06:19:49;;;;;;;111.67;51.27;;;-3.80;82.20;;;;;;5027038;28;20599;-72
2024/01/11 06:22:15;;;;;;;105.27;49.93;;;-3.80;82.30;;;;;;5009314;28;20049;-72
2024/01/11 06:24:41;;;;;;;105.10;49.73;;;-3.80;82.40;;;;;;5035645;28;20442;-73
2024/01/11 06:27:06;;;;;;;104.13;48.60;;;-3.70;82.30;;;;;;5034432;28;20075;-71
2024/01/11 06:29:32;;;;;;;104.13;49.13;;;-3.70;82.40;;;;;;5031180;28;20075;-72
2024/01/11 06:31:58;;;;;;;108.60;50.90;;;-3.60;82.30;;;;;;5034485;28;20549;-71
2024/01/11 06:34:23;;;;;;;105.37;49.17;;;-3.60;82.40;;;;;;5022019;28;20084;-71
2024/01/11 06:36:49;;;;;;;104.67;47.87;;;-3.60;82.40;;;;;;5029605;28;20088;-72
2024/01/11 06:39:15;;;;;;;110.67;50.00;;;-3.60;82.30;;;;;;5029723;28;20103;-74
2024/01/11 06:41:40;;;;;;;102.87;47.00;;;-3.60;82.30;;;;;;5030422;28;20139;-71
2024/01/11 06:44:06;;;;;;;105.03;47.93;;;-3.50;82.30;;;;;;5034418;28;20072;-72
2024/01/11 06:46:32;;;;;;;104.87;51.27;;;-3.50;82.30;;;;;;5016394;28;20053;-72
2024/01/11 06:48:58;;;;;;;103.60;50.37;;;-3.50;82.30;;;;;;5034982;28;20085;-72
2024/01/11 06:51:24;;;;;;;111.60;51.80;;;-3.50;82.40;;;;;;5035215;28;20492;-72
2024/01/11 06:53:50;;;;;;;106.97;50.40;;;-3.40;82.40;;;;;;5035320;28;20045;-72
2024/01/11 06:56:17;;;;;;;117.23;52.47;;;-3.40;82.40;;;;;;5033364;28;20055;-71
2024/01/11 06:58:43;;;;;;;106.53;50.07;;;-3.40;82.30;;;;;;5021855;28;20068;-72
2024/01/11 07:01:10;;;;;;;106.70;49.83;;;-3.40;82.40;;;;;;5020746;28;20037;-72
2024/01/11 07:03:35;;;;;;;108.63;51.03;;;-3.30;82.40;;;;;;5043208;28;20488;-72
2024/01/11 07:06:03;;;;;;;106.73;49.57;;;-3.30;82.30;;;;;;5019152;28;20050;-72
2024/01/11 07:08:28;;;;;;;100.43;48.80;;;-3.20;82.40;;;;;;5039623;28;20077;-73
2024/01/11 07:10:54;;;;;;;98.00;47.70;;;-3.20;82.40;;;;;;5038594;28;20582;-71
2024/01/11 07:13:20;;;;;;;102.00;47.93;;;-3.20;82.40;;;;;;5040961;28;20397;-70
2024/01/11 07:15:45;;;;;;;92.70;46.80;;;-3.20;82.40;;;;;;5041482;28;20068;-71
2024/01/11 07:18:11;;;;;;;100.57;48.97;;;-3.20;82.40;;;;;;5041314;28;20059;-71
2024/01/11 07:20:37;;;;;;;98.83;47.70;;;-3.20;82.50;;;;;;5024060;28;20740;-71
2024/01/11 07:23:03;;;;;;;96.53;48.60;;;-3.10;82.50;;;;;;5041610;28;20400;-75
2024/01/11 07:25:28;;;;;;;97.67;48.90;;;-3.10;82.60;;;;;;5042375;28;20141;-71
2024/01/11 07:27:54;;;;;;;96.93;47.43;;;-3.10;82.60;;;;;;5043604;28;20138;-72
2024/01/11 07:30:20;;;;;;;95.20;48.33;;;-3.00;82.60;;;;;;5026941;28;20045;-72
2024/01/11 07:32:45;;;;;;;97.00;47.57;;;-3.00;82.60;;;;;;5043263;28;20056;-72
2024/01/11 07:35:12;;;;;;;91.93;46.70;;;-3.00;82.60;;;;;;5040490;28;20392;-72
2024/01/11 07:37:38;;;;;;;100.27;46.80;;;-2.90;82.60;;;;;;5041154;28;21672;-72
2024/01/11 07:40:11;;;;;;;90.50;46.80;;;-2.90;82.60;;;;;;5036785;28;20044;-72
2024/01/11 07:42:40;;;;;;;93.97;45.93;;;-2.90;82.60;;;;;;5019813;28;20493;-72
2024/01/11 07:45:07;;;;;;;92.27;45.87;;;-2.80;82.70;;;;;;5022822;28;20048;-72
2024/01/11 07:47:33;;;;;;;88.13;43.97;;;-2.80;82.60;;;;;;5038615;28;20458;-72
2024/01/11 07:49:59;;;;;;;83.53;44.60;;;-2.70;82.50;;;;;;5038462;28;20473;-72
2024/01/11 07:52:25;;;;;;;86.17;43.90;;;-2.70;82.50;;;;;;5036175;28;20046;-71
2024/01/11 07:54:51;;;;;;;90.57;45.57;;;-2.70;82.50;;;;;;5025731;28;20037;-75
2024/01/11 07:57:16;;;;;;;88.73;44.93;;;-2.70;82.50;;;;;;5034136;28;20133;-73
2024/01/11 07:59:42;;;;;;;87.07;45.13;;;-2.70;82.40;;;;;;5020752;28;20124;-72
2024/01/11 08:02:08;;;;;;;90.40;45.47;;;-2.60;82.40;;;;;;5036310;28;20044;-72
2024/01/11 08:04:33;;;;;;;88.43;44.93;;;-2.60;82.50;;;;;;5037898;28;20045;-71
2024/01/11 08:06:59;;;;;;;86.00;44.10;;;-2.60;82.50;;;;;;5019275;28;20155;-73
2024/01/11 08:09:26;;;;;;;83.87;45.13;;;-2.50;82.50;;;;;;5035914;28;20071;-72
2024/01/11 08:11:54;;;;;;;89.03;44.83;;;-2.50;82.50;;;;;;5030177;28;20122;-73
2024/01/11 08:14:20;;;;;;;85.80;43.53;;;-2.50;82.50;;;;;;5016678;28;20056;-72
2024/01/11 08:16:46;;;;;;;84.23;42.17;;;-2.50;82.50;;;;;;5015934;28;20049;-71
2024/01/11 08:19:14;;;;;;;86.97;44.17;;;-2.40;82.60;;;;;;5035685;28;20056;-73
2024/01/11 08:21:41;;;;;;;80.60;42.07;;;-2.40;82.60;;;;;;5015411;28;20053;-72
2024/01/11 08:24:07;;;;;;;85.10;44.00;;;-2.30;82.60;;;;;;5032684;28;20159;-73
2024/01/11 08:26:33;;;;;;;82.57;42.27;;;-2.30;82.70;;;;;;5032804;28;20060;-75
2024/01/11 08:28:59;;;;;;;83.10;41.80;;;-2.20;82.70;;;;;;5033396;28;20114;-73
2024/01/11 08:31:25;;;;;;;76.23;42.27;;;-2.20;82.60;;;;;;5035755;28;20497;-74
2024/01/11 08:33:50;;;;;;;75.30;41.13;;;-2.20;82.60;;;;;;5016352;28;20052;-75
2024/01/11 08:36:16;;;;;;;79.90;42.20;;;-2.10;82.50;;;;;;5032219;28;20118;-72
2024/01/11 08:38:42;;;;;;;75.27;39.57;;;-2.10;82.50;;;;;;5014714;28;20060;-73
2024/01/11 08:41:08;;;;;;;75.50;41.43;;;-2.10;82.40;;;;;;5014440;28;20045;-72
2024/01/11 08:43:34;;;;;;;80.37;43.03;;;-2.00;82.50;;;;;;5034263;28;20048;-72
2024/01/11 08:46:01;;;;;;;80.53;42.17;;;-2.00;82.30;;;;;;5036075;28;20411;-73
2024/01/11 08:48:28;;;;;;;77.67;40.80;;;-1.90;82.30;;;;;;5033443;28;20068;-72
2024/01/11 08:50:54;;;;;;;73.90;39.70;;;-1.90;82.20;;;;;;5031384;28;20122;-73
2024/01/11 08:53:19;;;;;;;89.70;42.17;;;-1.80;82.30;;;;;;5031825;28;20524;-71
2024/01/11 08:55:45;;;;;;;73.43;40.10;;;-1.80;82.30;;;;;;5032364;28;20455;-72
2024/01/11 08:58:12;;;;;;;78.20;41.43;;;-1.80;82.30;;;;;;5036608;28;20064;-74
2024/01/11 09:00:38;;;;;;;80.87;43.13;;;-1.70;82.20;;;;;;5032500;28;20132;-72
2024/01/11 09:03:04;;;;;;;77.37;41.47;;;-1.70;82.20;;;;;;5014555;28;20080;-72
2024/01/11 09:05:29;;;;;;;73.93;40.97;;;-1.60;82.20;;;;;;5013856;28;20055;-72
2024/01/11 09:07:55;;;;;;;69.83;39.47;;;-1.60;82.20;;;;;;5031556;28;20064;-75
2024/01/11 09:10:21;;;;;;;79.63;42.80;;;-1.60;82.20;;;;;;5035713;28;20102;-72
2024/01/11 09:12:47;;;;;;;69.83;39.33;;;-1.50;82.10;;;;;;5015499;28;20135;-72
2024/01/11 09:15:12;;;;;;;76.90;40.93;;;-1.50;82.20;;;;;;5032417;28;20063;-72
2024/01/11 09:17:38;;;;;;;75.63;41.00;;;-1.50;82.30;;;;;;5032172;28;20512;-75
2024/01/11 09:20:05;;;;;;;72.80;39.97;;;-1.40;82.10;;;;;;5033700;28;20053;-72
2024/01/11 09:22:30;;;;;;;75.67;41.67;;;-1.30;82.10;;;;;;5017884;28;20424;-72
2024/01/11 09:24:56;;;;;;;72.27;41.53;;;-1.30;82.10;;;;;;5014207;28;20056;-72
2024/01/11 09:27:22;;;;;;;70.17;39.77;;;-1.30;82.10;;;;;;5035897;28;20048;-72
2024/01/11 09:29:48;;;;;;;70.43;40.10;;;-1.20;82.20;;;;;;5013995;28;20079;-74
2024/01/11 09:32:13;;;;;;;69.87;39.30;;;-1.10;82.10;;;;;;5030496;28;20147;-72
2024/01/11 09:34:39;;;;;;;67.60;38.03;;;-1.10;82.10;;;;;;5017233;28;20091;-74
2024/01/11 09:37:05;;;;;;;68.23;38.60;;;-1.10;82.10;;;;;;5035798;28;20488;-71
2024/01/11 09:39:31;;;;;;;69.00;39.17;;;-1.00;82.20;;;;;;5032739;28;20056;-75
2024/01/11 09:42:09;;;;;;;67.93;38.67;;;-0.90;82.20;;;;;;5034324;28;20084;-73
2024/01/11 09:44:37;;;;;;;64.10;36.33;;;-0.90;82.20;;;;;;5014997;28;20056;-72
2024/01/11 09:47:03;;;;;;;66.70;37.53;;;-0.90;82.10;;;;;;5013596;28;20647;-73
2024/01/11 09:49:31;;;;;;;61.27;36.87;;;-0.70;82.20;;;;;;5039645;28;20056;-74
2024/01/11 09:51:57;;;;;;;61.87;36.73;;;-0.70;82.20;;;;;;5032697;28;20427;-73
2024/01/11 09:54:24;;;;;;;61.60;36.97;;;-0.70;82.20;;;;;;5035332;28;20061;-72
2024/01/11 09:56:54;;;;;;;64.10;36.60;;;-0.70;82.20;;;;;;5014787;28;20389;-73
2024/01/11 09:59:23;;;;;;;62.30;36.40;;;-0.60;82.10;;;;;;5034453;28;20059;-73
2024/01/11 10:01:50;;;;;;;67.23;35.67;;;-0.60;82.10;;;;;;5030626;28;20428;-72
2024/01/11 10:04:17;;;;;;;60.77;35.33;;;-0.60;82.00;;;;;;5015807;28;20049;-71
2024/01/11 10:06:43;;;;;;;57.73;34.77;;;-0.50;82.00;;;;;;5019151;28;20052;-73
2024/01/11 10:09:09;;;;;;;58.73;36.03;;;-0.50;81.90;;;;;;5030902;28;20056;-73
2024/01/11 10:11:35;;;;;;;62.97;35.97;;;-0.40;81.80;;;;;;5034801;28;21636;-72
2024/01/11 10:14:01;;;;;;;63.07;37.10;;;-0.40;81.80;;;;;;5029905;28;20045;-75
2024/01/11 10:16:30;;;;;;;60.73;35.50;;;-0.40;81.80;;;;;;5014069;28;20045;-75
2024/01/11 10:18:55;;;;;;;62.10;35.73;;;-0.30;81.80;;;;;;5031754;28;20049;-72
2024/01/11 10:21:22;;;;;;;59.70;35.20;;;-0.30;81.70;;;;;;5028413;28;20049;-73
2024/01/11 10:23:49;;;;;;;58.40;34.93;;;-0.30;81.80;;;;;;5031605;28;20056;-73
2024/01/11 10:26:18;;;;;;;59.80;35.33;;;-0.30;81.80;;;;;;5031752;28;20473;-76
2024/01/11 10:28:47;;;;;;;58.40;35.03;;;-0.30;81.90;;;;;;5031565;28;20160;-72
2024/01/11 10:31:17;;;;;;;62.63;34.63;;;-0.30;81.70;;;;;;5031272;28;20048;-73
2024/01/11 10:33:45;;;;;;;60.43;34.43;;;-0.30;81.60;;;;;;5030597;28;20053;-73
2024/01/11 10:36:11;;;;;;;60.53;35.73;;;-0.20;81.70;;;;;;4995132;28;20056;-74
2024/01/11 10:38:39;;;;;;;59.70;35.27;;;-0.20;81.70;;;;;;5036558;28;20056;-75
2024/01/11 10:41:06;;;;;;;66.33;35.03;;;-0.20;81.80;;;;;;5018173;28;20396;-72
2024/01/11 10:43:35;;;;;;;59.67;37.20;;;-0.20;81.80;;;;;;5038913;28;20053;-72
2024/01/11 10:46:04;;;;;;;59.33;36.93;;;-0.10;81.80;;;;;;5033475;28;20072;-74
2024/01/11 10:48:33;;;;;;;63.83;37.17;;;-0.10;81.70;;;;;;5020265;28;20079;-74
2024/01/11 10:51:02;;;;;;;59.43;36.37;;;-0.10;81.80;;;;;;5003029;28;20053;-74
2024/01/11 10:53:47;;;;;;;57.93;36.30;;;-0.10;81.50;;;;;;5018930;28;20493;-76
2024/01/11 10:56:17;;;;;;;60.53;35.33;;;-0.10;81.70;;;;;;5002730;28;20047;-72
2024/01/11 10:58:44;;;;;;;45.63;28.00;;;-0.10;81.60;;;;;;5017432;28;20044;-75
2024/01/11 11:01:12;;;;;;;60.03;34.33;;;-0.10;81.60;;;;;;5014351;28;20292;-73
2024/01/11 11:03:38;;;;;;;58.87;34.33;;;0.00;81.60;;;;;;5013845;28;20391;-73
2024/01/11 11:06:08;;;;;;;57.37;34.67;;;0.00;81.70;;;;;;4997076;28;20045;-74
2024/01/11 11:08:34;;;;;;;57.00;34.70;;;0.00;81.80;;;;;;5018388;28;20674;-77
2024/01/11 11:11:03;;;;;;;55.50;34.30;;;0.00;81.70;;;;;;4998228;28;20605;-76
2024/01/11 11:13:29;;;;;;;58.60;36.03;;;0.00;81.80;;;;;;4998901;28;20053;-73
2024/01/11 11:15:58;;;;;;;56.53;33.50;;;0.00;81.80;;;;;;5014615;28;20060;-74
2024/01/11 11:18:24;;;;;;;54.93;32.30;;;0.10;81.80;;;;;;5017861;28;20053;-74
2024/01/11 11:20:51;;;;;;;58.97;32.57;;;0.20;81.80;;;;;;5020740;28;20053;-73
2024/01/11 11:23:18;;;;;;;61.97;33.67;;;0.20;81.90;;;;;;5024264;28;20060;-74
2024/01/11 11:25:48;;;;;;;52.80;31.93;;;0.20;81.90;;;;;;5014221;28;20546;-73
2024/01/11 11:28:18;;;;;;;54.83;33.20;;;0.30;81.90;;;;;;5015210;28;20045;-74
2024/01/11 11:30:47;;;;;;;55.03;32.67;;;0.30;81.90;;;;;;4999132;28;20060;-74
2024/01/11 11:33:18;;;;;;;58.83;31.60;;;0.40;81.80;;;;;;5022299;28;20460;-73
2024/01/11 11:35:45;;;;;;;52.80;32.60;;;0.40;82.00;;;;;;4995906;28;20314;-72
2024/01/11 11:38:30;;;;;;;54.23;31.90;;;0.50;82.00;;;;;;5014455;28;20066;-74
2024/01/11 11:40:58;;;;;;;48.20;30.00;;;0.50;82.00;;;;;;5012318;28;21320;-72
2024/01/11 11:43:27;;;;;;;55.70;32.17;;;0.50;82.10;;;;;;5017237;28;20056;-73
2024/01/11 11:45:53;;;;;;;53.30;31.37;;;0.60;82.00;;;;;;5013307;28;20103;-73
2024/01/11 11:48:32;;;;;;;54.60;32.23;;;0.60;82.00;;;;;;4997193;28;20088;-76
2024/01/11 11:51:16;;;;;;;57.87;31.63;;;0.60;82.20;;;;;;5013295;28;20451;-76
2024/01/11 11:53:43;;;;;;;58.00;31.07;;;0.60;82.10;;;;;;5001253;28;20045;-75
2024/01/11 11:56:10;;;;;;;52.23;31.73;;;0.60;82.10;;;;;;5021263;28;20532;-73
2024/01/11 11:58:36;;;;;;;57.43;30.57;;;0.60;82.20;;;;;;5013645;28;20164;-76
2024/01/11 12:01:04;;;;;;;52.30;30.83;;;0.60;82.20;;;;;;5016299;28;20063;-73
2024/01/11 12:03:37;;;;;;;52.80;30.70;;;0.60;82.20;;;;;;5015038;28;20089;-74
2024/01/11 12:06:14;;;;;;;54.70;31.17;;;0.60;82.30;;;;;;5021485;28;20099;-73
2024/01/11 12:08:42;;;;;;;60.77;31.10;;;0.60;82.30;;;;;;5027536;28;20045;-73
2024/01/11 12:11:08;;;;;;;50.37;30.00;;;0.60;82.40;;;;;;5007451;28;20119;-74
2024/01/11 12:13:34;;;;;;;57.73;31.13;;;0.60;82.50;;;;;;5032301;28;20053;-74
2024/01/11 12:16:00;;;;;;;52.23;29.83;;;0.70;82.60;;;;;;5000711;28;20102;-73
2024/01/11 12:18:26;;;;;;;54.23;31.53;;;0.70;82.60;;;;;;5018543;28;20096;-74
2024/01/11 12:20:54;;;;;;;50.30;30.50;;;0.70;82.70;;;;;;5037715;28;20064;-74
2024/01/11 12:23:20;;;;;;;54.23;30.10;;;0.70;82.70;;;;;;5019070;28;20407;-75